Walnut Hill, Florida
Current Conditions -  °F | °C
As of 5:56 PM on Saturday 25 Oct 2014 (Local Time) from KNSE Reporting Station
Clear Clear  
Wind Chill: 21°   Ceiling: Unl
Heat Index: 21°   Visibility: 10mi
Dew Point: 11°   Wind: 0mph
Humidity: 53%   Direction: NA
Pressure: 30.04"   Gusts: NA
Location:  30.8697°N, 87.4663°W
Report Text: KNSE 252256Z AUTO 00000KT 10SM CLR 21/11 A3004 RMK AO2 SLP158 T02110111 $
Loading
Personal Weather Stations






























Interactive Weather Map
Tropical Storm Tracking
New forecast layout! Learn more

10-Day Weather Forecast

Advertisements
Track Severe Weather on mobile